CheckWX is a tool to help pilots better visualize weather data.  It is not intended as a substitute for an official pre-flight weather briefing.

21:22:31 UTC

KEKN METAR
Elkins-Randolph Co-Jennings Randolph Field Airport
Elkins, West Virginia, USA
Current

32 mins ago

KEKN 242051Z AUTO 32004KT 10SM FEW028 26/18 A3012 RMK AO2 SLP193 T02560178 56016 $
Observed
May-24 @ 20:51 UTC
Wind
  • 320° at 4 KTS
Visibility
Flight Rules
VFR
Cloud Levels
  • Few at 2,800' AGL
Temperature
26°C / 79°F
Dewpoint
18°C / 64°F
Humidity
61%
Altimeter
30.12" Hg
Pressure
1020.02 hPa
Previous

2 hours ago

KEKN 241951Z AUTO 00000KT 10SM BKN065 BKN085 BKN110 23/17 A3013 RMK AO2 SLP201 T02330172 $
Observed
May-24 @ 19:51 UTC
Visibility
Flight Rules
VFR
Cloud Levels
  • Broken at 6,500' AGL
  • Broken at 8,500' AGL
  • Broken at 11,000' AGL
Temperature
23°C / 73°F
Dewpoint
17°C / 63°F
Humidity
69%
Altimeter
30.13" Hg
Pressure
1020.32 hPa
Previous

3 hours ago

KEKN 241851Z AUTO 00000KT 10SM CLR 23/18 A3014 RMK AO2 SLP203 T02280178 $
Observed
May-24 @ 18:51 UTC
Visibility
Flight Rules
VFR
Cloud Levels
  • Clear skies
Temperature
23°C / 73°F
Dewpoint
18°C / 64°F
Humidity
74%
Altimeter
30.14" Hg
Pressure
1020.62 hPa